Ryazhsk, Russia
Current Conditions -  °F | °C
As of 4:00 PM on Thursday 18 Dec 2014 (Local Time) from UUDD Reporting Station
Broken Clouds Broken Clouds  
Wind Chill: -3°   Ceiling: 1100
Heat Index:   Visibility: 6mi
Dew Point:   Wind: 9mph
Humidity: 93%   Direction: 230°SW
Pressure: 29.77"   Gusts: NA
Location:  53.71°N, 40.07°E
Report Text: UUDD 181300Z 23004MPS 200V260 9999 BKN011 01/00 Q1008 3229009582290095 NOSIG
Loading
Personal Weather Stations






























Interactive Weather Map New forecast layout! Learn more

10-Day Weather Forecast

Advertisements
Track Severe Weather on mobile